sensor_id;sensor_type;location;lat;lon;timestamp;P1;durP1;ratioP1;P2;durP2;ratioP2
12601;SDS011;30282;16.436;99.370;2024-02-04T00:00:15;67.73;;;33.73;;
12601;SDS011;30282;16.436;99.370;2024-02-04T00:02:45;45.00;;;28.70;;
12601;SDS011;30282;16.436;99.370;2024-02-04T00:05:14;53.60;;;29.00;;
12601;SDS011;30282;16.436;99.370;2024-02-04T00:07:44;64.20;;;33.83;;
12601;SDS011;30282;16.436;99.370;2024-02-04T00:10:15;53.23;;;32.80;;
12601;SDS011;30282;16.436;99.370;2024-02-04T00:12:44;55.03;;;32.63;;
12601;SDS011;30282;16.436;99.370;2024-02-04T00:15:13;48.20;;;28.57;;
12601;SDS011;30282;16.436;99.370;2024-02-04T00:17:42;38.73;;;25.70;;
12601;SDS011;30282;16.436;99.370;2024-02-04T00:20:12;38.23;;;24.77;;
12601;SDS011;30282;16.436;99.370;2024-02-04T00:22:41;42.27;;;24.47;;
12601;SDS011;30282;16.436;99.370;2024-02-04T00:25:10;52.53;;;24.83;;
12601;SDS011;30282;16.436;99.370;2024-02-04T00:27:42;40.60;;;25.53;;
12601;SDS011;30282;16.436;99.370;2024-02-04T00:30:11;47.93;;;27.67;;
12601;SDS011;30282;16.436;99.370;2024-02-04T00:32:41;45.97;;;27.00;;
12601;SDS011;30282;16.436;99.370;2024-02-04T00:35:10;53.27;;;29.20;;
12601;SDS011;30282;16.436;99.370;2024-02-04T00:37:39;44.23;;;30.63;;
12601;SDS011;30282;16.436;99.370;2024-02-04T00:40:08;45.30;;;32.07;;
12601;SDS011;30282;16.436;99.370;2024-02-04T00:42:38;49.83;;;33.13;;
12601;SDS011;30282;16.436;99.370;2024-02-04T00:45:09;51.27;;;36.30;;
12601;SDS011;30282;16.436;99.370;2024-02-04T00:47:39;56.47;;;37.20;;
12601;SDS011;30282;16.436;99.370;2024-02-04T00:50:08;64.80;;;40.40;;
12601;SDS011;30282;16.436;99.370;2024-02-04T00:52:38;86.17;;;50.67;;
12601;SDS011;30282;16.436;99.370;2024-02-04T00:55:07;99.33;;;56.37;;
12601;SDS011;30282;16.436;99.370;2024-02-04T00:57:37;86.87;;;53.40;;
12601;SDS011;30282;16.436;99.370;2024-02-04T01:00:06;89.43;;;51.17;;
12601;SDS011;30282;16.436;99.370;2024-02-04T01:02:38;85.83;;;49.17;;
12601;SDS011;30282;16.436;99.370;2024-02-04T01:05:07;77.37;;;44.60;;
12601;SDS011;30282;16.436;99.370;2024-02-04T01:07:37;70.83;;;42.37;;
12601;SDS011;30282;16.436;99.370;2024-02-04T01:10:06;80.00;;;47.77;;
12601;SDS011;30282;16.436;99.370;2024-02-04T01:12:36;72.43;;;44.67;;
12601;SDS011;30282;16.436;99.370;2024-02-04T01:15:05;76.97;;;46.03;;
12601;SDS011;30282;16.436;99.370;2024-02-04T01:17:36;81.67;;;43.47;;
12601;SDS011;30282;16.436;99.370;2024-02-04T01:20:06;66.37;;;41.73;;
12601;SDS011;30282;16.436;99.370;2024-02-04T01:22:36;61.53;;;35.00;;
12601;SDS011;30282;16.436;99.370;2024-02-04T01:25:05;61.40;;;34.00;;
12601;SDS011;30282;16.436;99.370;2024-02-04T01:27:35;54.20;;;34.60;;
12601;SDS011;30282;16.436;99.370;2024-02-04T01:30:05;53.30;;;34.30;;
12601;SDS011;30282;16.436;99.370;2024-02-04T01:32:36;68.63;;;36.40;;
12601;SDS011;30282;16.436;99.370;2024-02-04T01:35:06;52.30;;;35.10;;
12601;SDS011;30282;16.436;99.370;2024-02-04T01:37:36;54.40;;;34.57;;
12601;SDS011;30282;16.436;99.370;2024-02-04T01:40:05;54.57;;;33.93;;
12601;SDS011;30282;16.436;99.370;2024-02-04T01:42:35;53.40;;;33.00;;
12601;SDS011;30282;16.436;99.370;2024-02-04T01:45:05;40.00;;;26.07;;
12601;SDS011;30282;16.436;99.370;2024-02-04T01:47:36;39.50;;;22.50;;
12601;SDS011;30282;16.436;99.370;2024-02-04T01:50:06;33.83;;;20.87;;
12601;SDS011;30282;16.436;99.370;2024-02-04T01:52:36;34.50;;;22.37;;
12601;SDS011;30282;16.436;99.370;2024-02-04T01:55:07;37.43;;;22.37;;
12601;SDS011;30282;16.436;99.370;2024-02-04T01:57:37;33.43;;;20.40;;
12601;SDS011;30282;16.436;99.370;2024-02-04T02:00:07;37.27;;;21.37;;
12601;SDS011;30282;16.436;99.370;2024-02-04T02:02:40;29.23;;;17.00;;
12601;SDS011;30282;16.436;99.370;2024-02-04T02:05:11;29.33;;;18.80;;
12601;SDS011;30282;16.436;99.370;2024-02-04T02:07:40;27.00;;;17.70;;
12601;SDS011;30282;16.436;99.370;2024-02-04T02:10:11;35.10;;;18.40;;
12601;SDS011;30282;16.436;99.370;2024-02-04T02:12:42;36.20;;;18.67;;
12601;SDS011;30282;16.436;99.370;2024-02-04T02:15:17;27.43;;;16.00;;
12601;SDS011;30282;16.436;99.370;2024-02-04T02:17:52;31.37;;;16.70;;
12601;SDS011;30282;16.436;99.370;2024-02-04T02:20:27;23.93;;;14.90;;
12601;SDS011;30282;16.436;99.370;2024-02-04T02:23:06;28.77;;;16.50;;
12601;SDS011;30282;16.436;99.370;2024-02-04T02:25:40;27.83;;;15.60;;
12601;SDS011;30282;16.436;99.370;2024-02-04T02:28:10;23.97;;;15.30;;
12601;SDS011;30282;16.436;99.370;2024-02-04T02:30:40;25.27;;;15.10;;
12601;SDS011;30282;16.436;99.370;2024-02-04T02:33:09;22.20;;;14.03;;
12601;SDS011;30282;16.436;99.370;2024-02-04T02:35:38;21.50;;;12.93;;
12601;SDS011;30282;16.436;99.370;2024-02-04T02:38:09;30.03;;;15.67;;
12601;SDS011;30282;16.436;99.370;2024-02-04T02:40:47;29.77;;;19.67;;
12601;SDS011;30282;16.436;99.370;2024-02-04T02:43:19;30.70;;;18.23;;
12601;SDS011;30282;16.436;99.370;2024-02-04T02:45:48;26.63;;;17.03;;
12601;SDS011;30282;16.436;99.370;2024-02-04T02:48:18;24.30;;;17.20;;
12601;SDS011;30282;16.436;99.370;2024-02-04T02:50:47;32.00;;;19.50;;
12601;SDS011;30282;16.436;99.370;2024-02-04T02:53:16;26.90;;;17.63;;
12601;SDS011;30282;16.436;99.370;2024-02-04T02:55:47;29.93;;;21.77;;
12601;SDS011;30282;16.436;99.370;2024-02-04T02:58:16;53.47;;;35.13;;
12601;SDS011;30282;16.436;99.370;2024-02-04T03:00:45;37.20;;;21.17;;
12601;SDS011;30282;16.436;99.370;2024-02-04T03:03:14;111.80;;;63.20;;
12601;SDS011;30282;16.436;99.370;2024-02-04T03:05:43;173.83;;;96.93;;
12601;SDS011;30282;16.436;99.370;2024-02-04T03:08:13;66.97;;;41.50;;
12601;SDS011;30282;16.436;99.370;2024-02-04T03:10:42;27.63;;;17.30;;
12601;SDS011;30282;16.436;99.370;2024-02-04T03:13:13;27.20;;;14.90;;
12601;SDS011;30282;16.436;99.370;2024-02-04T03:15:42;22.90;;;13.33;;
12601;SDS011;30282;16.436;99.370;2024-02-04T03:18:11;21.10;;;12.77;;
12601;SDS011;30282;16.436;99.370;2024-02-04T03:20:40;19.27;;;11.30;;
12601;SDS011;30282;16.436;99.370;2024-02-04T03:23:09;17.03;;;9.23;;
12601;SDS011;30282;16.436;99.370;2024-02-04T03:25:39;17.90;;;9.40;;
12601;SDS011;30282;16.436;99.370;2024-02-04T03:28:11;13.07;;;8.27;;
12601;SDS011;30282;16.436;99.370;2024-02-04T03:30:42;13.77;;;7.93;;
12601;SDS011;30282;16.436;99.370;2024-02-04T03:33:11;14.50;;;8.53;;
12601;SDS011;30282;16.436;99.370;2024-02-04T03:35:40;15.07;;;8.20;;
12601;SDS011;30282;16.436;99.370;2024-02-04T03:38:09;11.70;;;8.30;;
12601;SDS011;30282;16.436;99.370;2024-02-04T03:40:38;16.63;;;8.40;;
12601;SDS011;30282;16.436;99.370;2024-02-04T03:43:08;11.93;;;7.47;;
12601;SDS011;30282;16.436;99.370;2024-02-04T03:45:39;15.60;;;7.23;;
12601;SDS011;30282;16.436;99.370;2024-02-04T03:48:08;15.37;;;7.37;;
12601;SDS011;30282;16.436;99.370;2024-02-04T03:50:37;10.00;;;6.70;;
12601;SDS011;30282;16.436;99.370;2024-02-04T03:53:07;14.03;;;7.50;;
12601;SDS011;30282;16.436;99.370;2024-02-04T03:55:36;10.50;;;6.77;;
12601;SDS011;30282;16.436;99.370;2024-02-04T03:58:05;10.30;;;7.10;;
12601;SDS011;30282;16.436;99.370;2024-02-04T04:00:35;12.47;;;7.50;;
12601;SDS011;30282;16.436;99.370;2024-02-04T04:03:05;11.67;;;7.77;;
12601;SDS011;30282;16.436;99.370;2024-02-04T04:05:35;9.50;;;6.50;;
12601;SDS011;30282;16.436;99.370;2024-02-04T04:08:04;10.50;;;6.93;;
12601;SDS011;30282;16.436;99.370;2024-02-04T04:10:33;11.97;;;7.40;;
12601;SDS011;30282;16.436;99.370;2024-02-04T04:13:02;10.47;;;7.50;;
12601;SDS011;30282;16.436;99.370;2024-02-04T04:15:32;10.90;;;7.93;;
12601;SDS011;30282;16.436;99.370;2024-02-04T04:18:01;13.43;;;7.63;;
12601;SDS011;30282;16.436;99.370;2024-02-04T04:20:32;11.00;;;7.00;;
12601;SDS011;30282;16.436;99.370;2024-02-04T04:23:01;13.20;;;7.60;;
12601;SDS011;30282;16.436;99.370;2024-02-04T04:25:30;10.47;;;7.20;;
12601;SDS011;30282;16.436;99.370;2024-02-04T04:28:00;9.97;;;7.00;;
12601;SDS011;30282;16.436;99.370;2024-02-04T04:30:29;11.77;;;6.43;;
12601;SDS011;30282;16.436;99.370;2024-02-04T04:32:58;11.17;;;6.30;;
12601;SDS011;30282;16.436;99.370;2024-02-04T04:35:27;9.63;;;5.87;;
12601;SDS011;30282;16.436;99.370;2024-02-04T04:37:58;12.63;;;6.30;;
12601;SDS011;30282;16.436;99.370;2024-02-04T04:40:27;11.73;;;6.33;;
12601;SDS011;30282;16.436;99.370;2024-02-04T04:42:57;10.07;;;5.80;;
12601;SDS011;30282;16.436;99.370;2024-02-04T04:45:26;11.03;;;5.87;;
12601;SDS011;30282;16.436;99.370;2024-02-04T04:47:55;8.23;;;5.00;;
12601;SDS011;30282;16.436;99.370;2024-02-04T04:50:25;8.90;;;5.67;;
12601;SDS011;30282;16.436;99.370;2024-02-04T04:52:54;7.80;;;5.40;;
12601;SDS011;30282;16.436;99.370;2024-02-04T04:55:25;7.70;;;5.63;;
12601;SDS011;30282;16.436;99.370;2024-02-04T04:57:54;10.40;;;5.67;;
12601;SDS011;30282;16.436;99.370;2024-02-04T05:00:23;7.83;;;5.50;;
12601;SDS011;30282;16.436;99.370;2024-02-04T05:02:53;8.20;;;5.30;;
12601;SDS011;30282;16.436;99.370;2024-02-04T05:05:22;8.67;;;5.03;;
12601;SDS011;30282;16.436;99.370;2024-02-04T05:07:51;10.20;;;6.30;;
12601;SDS011;30282;16.436;99.370;2024-02-04T05:10:20;9.17;;;5.20;;
12601;SDS011;30282;16.436;99.370;2024-02-04T05:12:51;11.10;;;5.77;;
12601;SDS011;30282;16.436;99.370;2024-02-04T05:15:20;11.53;;;5.03;;
12601;SDS011;30282;16.436;99.370;2024-02-04T05:17:50;19.07;;;5.90;;
12601;SDS011;30282;16.436;99.370;2024-02-04T05:20:20;8.80;;;4.43;;
12601;SDS011;30282;16.436;99.370;2024-02-04T05:22:49;8.50;;;4.90;;
12601;SDS011;30282;16.436;99.370;2024-02-04T05:25:19;10.97;;;4.60;;
12601;SDS011;30282;16.436;99.370;2024-02-04T05:27:48;7.50;;;4.40;;
12601;SDS011;30282;16.436;99.370;2024-02-04T05:30:19;7.57;;;5.07;;
12601;SDS011;30282;16.436;99.370;2024-02-04T05:32:48;9.57;;;6.77;;
12601;SDS011;30282;16.436;99.370;2024-02-04T05:35:18;8.03;;;5.63;;
12601;SDS011;30282;16.436;99.370;2024-02-04T05:37:47;6.73;;;4.40;;
12601;SDS011;30282;16.436;99.370;2024-02-04T05:40:16;8.70;;;4.20;;
12601;SDS011;30282;16.436;99.370;2024-02-04T05:42:46;7.33;;;4.00;;
12601;SDS011;30282;16.436;99.370;2024-02-04T05:45:17;7.23;;;4.60;;
12601;SDS011;30282;16.436;99.370;2024-02-04T05:47:46;6.97;;;4.30;;
12601;SDS011;30282;16.436;99.370;2024-02-04T05:50:15;9.73;;;5.27;;
12601;SDS011;30282;16.436;99.370;2024-02-04T05:52:44;8.80;;;5.13;;
12601;SDS011;30282;16.436;99.370;2024-02-04T05:55:14;8.53;;;5.07;;
12601;SDS011;30282;16.436;99.370;2024-02-04T05:57:43;7.60;;;5.53;;
12601;SDS011;30282;16.436;99.370;2024-02-04T06:00:13;9.30;;;4.47;;
12601;SDS011;30282;16.436;99.370;2024-02-04T06:02:44;9.33;;;4.67;;
12601;SDS011;30282;16.436;99.370;2024-02-04T06:05:13;6.50;;;3.93;;
12601;SDS011;30282;16.436;99.370;2024-02-04T06:07:42;6.37;;;4.50;;
12601;SDS011;30282;16.436;99.370;2024-02-04T06:10:12;8.10;;;4.70;;
12601;SDS011;30282;16.436;99.370;2024-02-04T06:12:41;6.60;;;3.83;;
12601;SDS011;30282;16.436;99.370;2024-02-04T06:15:13;6.00;;;3.53;;
12601;SDS011;30282;16.436;99.370;2024-02-04T06:17:44;6.47;;;4.00;;
12601;SDS011;30282;16.436;99.370;2024-02-04T06:20:13;5.50;;;3.47;;
12601;SDS011;30282;16.436;99.370;2024-02-04T06:22:42;9.40;;;3.70;;
12601;SDS011;30282;16.436;99.370;2024-02-04T06:25:11;7.30;;;3.70;;
12601;SDS011;30282;16.436;99.370;2024-02-04T06:27:41;5.00;;;3.23;;
12601;SDS011;30282;16.436;99.370;2024-02-04T06:30:10;6.80;;;4.33;;
12601;SDS011;30282;16.436;99.370;2024-02-04T06:32:40;7.27;;;4.93;;
12601;SDS011;30282;16.436;99.370;2024-02-04T06:35:11;6.20;;;3.93;;
12601;SDS011;30282;16.436;99.370;2024-02-04T06:37:40;7.60;;;4.90;;
12601;SDS011;30282;16.436;99.370;2024-02-04T06:40:10;7.83;;;6.20;;
12601;SDS011;30282;16.436;99.370;2024-02-04T06:42:40;12.43;;;4.93;;
12601;SDS011;30282;16.436;99.370;2024-02-04T06:45:09;9.87;;;5.30;;
12601;SDS011;30282;16.436;99.370;2024-02-04T06:47:38;8.47;;;4.97;;
12601;SDS011;30282;16.436;99.370;2024-02-04T06:50:12;7.87;;;5.60;;
12601;SDS011;30282;16.436;99.370;2024-02-04T06:52:41;12.30;;;5.63;;
12601;SDS011;30282;16.436;99.370;2024-02-04T06:55:11;9.13;;;5.80;;
12601;SDS011;30282;16.436;99.370;2024-02-04T06:57:40;10.20;;;6.63;;
12601;SDS011;30282;16.436;99.370;2024-02-04T07:00:10;29.40;;;8.77;;
12601;SDS011;30282;16.436;99.370;2024-02-04T07:02:40;9.83;;;6.67;;
12601;SDS011;30282;16.436;99.370;2024-02-04T07:05:12;10.33;;;7.77;;
12601;SDS011;30282;16.436;99.370;2024-02-04T07:07:41;13.37;;;8.70;;
12601;SDS011;30282;16.436;99.370;2024-02-04T07:10:10;9.77;;;7.43;;
12601;SDS011;30282;16.436;99.370;2024-02-04T07:12:39;14.00;;;10.30;;
12601;SDS011;30282;16.436;99.370;2024-02-04T07:15:08;11.27;;;7.33;;
12601;SDS011;30282;16.436;99.370;2024-02-04T07:17:37;10.63;;;7.23;;
12601;SDS011;30282;16.436;99.370;2024-02-04T07:20:07;10.87;;;7.20;;
12601;SDS011;30282;16.436;99.370;2024-02-04T07:22:38;14.47;;;9.53;;
12601;SDS011;30282;16.436;99.370;2024-02-04T07:25:07;10.63;;;7.03;;
12601;SDS011;30282;16.436;99.370;2024-02-04T07:27:37;12.03;;;7.80;;
12601;SDS011;30282;16.436;99.370;2024-02-04T07:30:06;17.50;;;8.77;;
12601;SDS011;30282;16.436;99.370;2024-02-04T07:32:36;18.07;;;8.50;;
12601;SDS011;30282;16.436;99.370;2024-02-04T07:35:05;17.20;;;7.50;;
12601;SDS011;30282;16.436;99.370;2024-02-04T07:37:35;12.80;;;8.27;;
12601;SDS011;30282;16.436;99.370;2024-02-04T07:40:06;10.90;;;6.50;;
12601;SDS011;30282;16.436;99.370;2024-02-04T07:42:36;19.73;;;6.97;;
12601;SDS011;30282;16.436;99.370;2024-02-04T07:45:05;13.30;;;6.80;;
12601;SDS011;30282;16.436;99.370;2024-02-04T07:47:36;13.17;;;5.90;;
12601;SDS011;30282;16.436;99.370;2024-02-04T07:50:05;8.67;;;6.23;;
12601;SDS011;30282;16.436;99.370;2024-02-04T07:52:35;14.67;;;7.43;;
12601;SDS011;30282;16.436;99.370;2024-02-04T07:55:06;10.67;;;7.93;;
12601;SDS011;30282;16.436;99.370;2024-02-04T07:57:36;12.40;;;5.67;;
12601;SDS011;30282;16.436;99.370;2024-02-04T08:00:05;7.93;;;5.73;;
12601;SDS011;30282;16.436;99.370;2024-02-04T08:02:36;13.30;;;7.20;;
12601;SDS011;30282;16.436;99.370;2024-02-04T08:05:05;11.10;;;7.00;;
12601;SDS011;30282;16.436;99.370;2024-02-04T08:07:34;11.00;;;6.53;;
12601;SDS011;30282;16.436;99.370;2024-02-04T08:10:06;9.50;;;6.10;;
12601;SDS011;30282;16.436;99.370;2024-02-04T08:12:36;13.00;;;6.67;;
12601;SDS011;30282;16.436;99.370;2024-02-04T08:15:05;10.10;;;6.60;;
12601;SDS011;30282;16.436;99.370;2024-02-04T08:17:35;9.50;;;5.70;;
12601;SDS011;30282;16.436;99.370;2024-02-04T08:20:04;9.30;;;5.43;;
12601;SDS011;30282;16.436;99.370;2024-02-04T08:22:34;8.40;;;5.50;;
12601;SDS011;30282;16.436;99.370;2024-02-04T08:25:03;7.80;;;4.97;;
12601;SDS011;30282;16.436;99.370;2024-02-04T08:27:37;9.67;;;5.53;;
12601;SDS011;30282;16.436;99.370;2024-02-04T08:30:06;13.90;;;5.77;;
12601;SDS011;30282;16.436;99.370;2024-02-04T08:32:37;10.67;;;6.70;;
12601;SDS011;30282;16.436;99.370;2024-02-04T08:35:06;15.60;;;7.27;;
12601;SDS011;30282;16.436;99.370;2024-02-04T08:37:36;9.13;;;5.53;;
12601;SDS011;30282;16.436;99.370;2024-02-04T08:40:07;9.87;;;6.10;;
12601;SDS011;30282;16.436;99.370;2024-02-04T08:42:37;10.13;;;6.60;;
12601;SDS011;30282;16.436;99.370;2024-02-04T08:45:07;8.93;;;5.83;;
12601;SDS011;30282;16.436;99.370;2024-02-04T08:47:37;9.80;;;5.87;;
12601;SDS011;30282;16.436;99.370;2024-02-04T08:50:07;18.43;;;6.03;;
12601;SDS011;30282;16.436;99.370;2024-02-04T08:52:37;8.77;;;5.80;;
12601;SDS011;30282;16.436;99.370;2024-02-04T08:55:08;8.13;;;5.60;;
12601;SDS011;30282;16.436;99.370;2024-02-04T08:57:38;9.47;;;5.67;;
12601;SDS011;30282;16.436;99.370;2024-02-04T09:00:07;9.13;;;6.07;;
12601;SDS011;30282;16.436;99.370;2024-02-04T09:02:38;11.57;;;6.23;;
12601;SDS011;30282;16.436;99.370;2024-02-04T09:05:08;8.10;;;5.23;;
12601;SDS011;30282;16.436;99.370;2024-02-04T09:07:37;12.20;;;5.00;;
12601;SDS011;30282;16.436;99.370;2024-02-04T09:10:08;8.70;;;5.27;;
12601;SDS011;30282;16.436;99.370;2024-02-04T09:12:38;8.10;;;5.80;;
12601;SDS011;30282;16.436;99.370;2024-02-04T09:15:07;7.20;;;5.00;;
12601;SDS011;30282;16.436;99.370;2024-02-04T09:17:37;9.83;;;6.00;;
12601;SDS011;30282;16.436;99.370;2024-02-04T09:20:06;8.27;;;4.90;;
12601;SDS011;30282;16.436;99.370;2024-02-04T09:22:36;9.57;;;5.70;;
12601;SDS011;30282;16.436;99.370;2024-02-04T09:25:06;11.57;;;4.90;;
12601;SDS011;30282;16.436;99.370;2024-02-04T09:27:37;11.00;;;6.00;;
12601;SDS011;30282;16.436;99.370;2024-02-04T09:30:06;10.27;;;5.20;;
12601;SDS011;30282;16.436;99.370;2024-02-04T09:32:36;10.93;;;5.03;;
12601;SDS011;30282;16.436;99.370;2024-02-04T09:35:05;10.50;;;5.27;;
12601;SDS011;30282;16.436;99.370;2024-02-04T09:37:35;43.67;;;7.30;;
12601;SDS011;30282;16.436;99.370;2024-02-04T09:40:04;7.53;;;5.20;;
12601;SDS011;30282;16.436;99.370;2024-02-04T09:42:36;8.37;;;5.43;;
12601;SDS011;30282;16.436;99.370;2024-02-04T09:45:05;9.83;;;5.60;;
12601;SDS011;30282;16.436;99.370;2024-02-04T09:47:35;7.53;;;5.90;;
12601;SDS011;30282;16.436;99.370;2024-02-04T09:50:06;8.20;;;4.80;;
12601;SDS011;30282;16.436;99.370;2024-02-04T09:52:36;7.57;;;4.90;;
12601;SDS011;30282;16.436;99.370;2024-02-04T09:55:07;8.90;;;5.40;;
12601;SDS011;30282;16.436;99.370;2024-02-04T09:57:39;9.80;;;4.90;;
12601;SDS011;30282;16.436;99.370;2024-02-04T10:00:09;7.80;;;5.43;;
12601;SDS011;30282;16.436;99.370;2024-02-04T10:02:39;8.80;;;5.23;;
12601;SDS011;30282;16.436;99.370;2024-02-04T10:05:10;18.40;;;7.20;;
12601;SDS011;30282;16.436;99.370;2024-02-04T10:07:39;12.03;;;6.03;;
12601;SDS011;30282;16.436;99.370;2024-02-04T10:10:08;9.63;;;5.50;;
12601;SDS011;30282;16.436;99.370;2024-02-04T10:12:41;10.73;;;6.03;;
12601;SDS011;30282;16.436;99.370;2024-02-04T10:15:10;10.40;;;5.37;;
12601;SDS011;30282;16.436;99.370;2024-02-04T10:17:42;11.80;;;5.87;;
12601;SDS011;30282;16.436;99.370;2024-02-04T10:20:13;12.37;;;5.67;;
12601;SDS011;30282;16.436;99.370;2024-02-04T10:22:42;10.10;;;5.77;;
12601;SDS011;30282;16.436;99.370;2024-02-04T10:25:12;10.27;;;6.00;;
12601;SDS011;30282;16.436;99.370;2024-02-04T10:27:44;12.83;;;5.90;;
12601;SDS011;30282;16.436;99.370;2024-02-04T10:30:13;12.93;;;6.23;;
12601;SDS011;30282;16.436;99.370;2024-02-04T10:32:42;8.83;;;7.10;;
12601;SDS011;30282;16.436;99.370;2024-02-04T10:35:12;13.60;;;6.00;;
12601;SDS011;30282;16.436;99.370;2024-02-04T10:37:44;13.40;;;7.53;;
12601;SDS011;30282;16.436;99.370;2024-02-04T10:40:13;34.43;;;18.73;;
12601;SDS011;30282;16.436;99.370;2024-02-04T10:42:45;20.40;;;13.63;;
12601;SDS011;30282;16.436;99.370;2024-02-04T10:45:15;19.77;;;13.23;;
12601;SDS011;30282;16.436;99.370;2024-02-04T10:47:50;21.60;;;12.33;;
12601;SDS011;30282;16.436;99.370;2024-02-04T10:50:24;23.10;;;12.90;;
12601;SDS011;30282;16.436;99.370;2024-02-04T10:52:55;22.07;;;13.30;;
12601;SDS011;30282;16.436;99.370;2024-02-04T10:55:29;20.63;;;13.70;;
12601;SDS011;30282;16.436;99.370;2024-02-04T10:58:01;22.00;;;14.17;;
12601;SDS011;30282;16.436;99.370;2024-02-04T11:00:32;23.63;;;14.57;;
12601;SDS011;30282;16.436;99.370;2024-02-04T11:03:01;22.00;;;14.37;;
12601;SDS011;30282;16.436;99.370;2024-02-04T11:05:32;24.33;;;14.73;;
12601;SDS011;30282;16.436;99.370;2024-02-04T11:08:02;23.70;;;14.83;;
12601;SDS011;30282;16.436;99.370;2024-02-04T11:10:32;24.40;;;15.20;;
12601;SDS011;30282;16.436;99.370;2024-02-04T11:13:04;25.47;;;15.20;;
12601;SDS011;30282;16.436;99.370;2024-02-04T11:15:36;21.50;;;16.50;;
12601;SDS011;30282;16.436;99.370;2024-02-04T11:18:24;27.10;;;15.80;;
12601;SDS011;30282;16.436;99.370;2024-02-04T11:24:20;35.00;;;21.70;;
12601;SDS011;30282;16.436;99.370;2024-02-04T11:27:02;33.33;;;25.60;;
12601;SDS011;30282;16.436;99.370;2024-02-04T11:29:33;37.50;;;25.73;;
12601;SDS011;30282;16.436;99.370;2024-02-04T11:32:05;36.77;;;25.57;;
12601;SDS011;30282;16.436;99.370;2024-02-04T11:34:34;48.53;;;28.03;;
12601;SDS011;30282;16.436;99.370;2024-02-04T11:37:14;52.30;;;33.27;;
12601;SDS011;30282;16.436;99.370;2024-02-04T11:39:51;57.57;;;36.37;;
12601;SDS011;30282;16.436;99.370;2024-02-04T11:42:22;47.80;;;32.90;;
12601;SDS011;30282;16.436;99.370;2024-02-04T11:47:39;48.30;;;30.50;;
12601;SDS011;30282;16.436;99.370;2024-02-04T11:50:09;45.40;;;30.73;;
12601;SDS011;30282;16.436;99.370;2024-02-04T11:52:38;41.10;;;27.47;;
12601;SDS011;30282;16.436;99.370;2024-02-04T11:55:13;51.40;;;29.30;;
12601;SDS011;30282;16.436;99.370;2024-02-04T11:57:42;51.40;;;29.53;;
12601;SDS011;30282;16.436;99.370;2024-02-04T12:00:15;47.73;;;33.47;;
12601;SDS011;30282;16.436;99.370;2024-02-04T12:02:45;48.37;;;33.90;;
12601;SDS011;30282;16.436;99.370;2024-02-04T12:05:14;65.17;;;40.30;;
12601;SDS011;30282;16.436;99.370;2024-02-04T12:07:43;71.73;;;41.90;;
12601;SDS011;30282;16.436;99.370;2024-02-04T12:10:13;54.07;;;38.53;;
12601;SDS011;30282;16.436;99.370;2024-02-04T12:12:42;51.60;;;36.60;;
12601;SDS011;30282;16.436;99.370;2024-02-04T12:15:11;66.80;;;45.40;;
12601;SDS011;30282;16.436;99.370;2024-02-04T12:17:42;48.73;;;32.97;;
12601;SDS011;30282;16.436;99.370;2024-02-04T12:20:11;53.77;;;35.80;;
12601;SDS011;30282;16.436;99.370;2024-02-04T12:22:40;72.67;;;37.03;;
12601;SDS011;30282;16.436;99.370;2024-02-04T12:25:09;44.17;;;31.33;;
12601;SDS011;30282;16.436;99.370;2024-02-04T12:27:39;53.17;;;31.20;;
12601;SDS011;30282;16.436;99.370;2024-02-04T12:30:09;57.77;;;35.03;;
12601;SDS011;30282;16.436;99.370;2024-02-04T12:32:40;54.10;;;35.63;;
12601;SDS011;30282;16.436;99.370;2024-02-04T12:35:13;85.63;;;51.77;;
12601;SDS011;30282;16.436;99.370;2024-02-04T12:37:49;75.50;;;49.53;;
12601;SDS011;30282;16.436;99.370;2024-02-04T12:40:22;77.23;;;46.00;;
12601;SDS011;30282;16.436;99.370;2024-02-04T12:42:53;80.03;;;48.27;;
12601;SDS011;30282;16.436;99.370;2024-02-04T12:45:23;60.37;;;40.57;;
12601;SDS011;30282;16.436;99.370;2024-02-04T12:47:54;79.30;;;43.73;;
12601;SDS011;30282;16.436;99.370;2024-02-04T12:50:24;72.47;;;42.97;;
12601;SDS011;30282;16.436;99.370;2024-02-04T12:53:02;57.07;;;36.70;;
12601;SDS011;30282;16.436;99.370;2024-02-04T12:55:32;55.10;;;35.93;;
12601;SDS011;30282;16.436;99.370;2024-02-04T12:58:02;59.57;;;37.37;;
12601;SDS011;30282;16.436;99.370;2024-02-04T13:00:32;59.97;;;39.23;;
12601;SDS011;30282;16.436;99.370;2024-02-04T13:03:04;66.97;;;39.30;;
12601;SDS011;30282;16.436;99.370;2024-02-04T13:05:35;50.73;;;34.27;;
12601;SDS011;30282;16.436;99.370;2024-02-04T13:08:05;299.03;;;198.77;;
12601;SDS011;30282;16.436;99.370;2024-02-04T13:10:35;878.50;;;684.50;;
12601;SDS011;30282;16.436;99.370;2024-02-04T13:13:08;341.60;;;191.53;;
12601;SDS011;30282;16.436;99.370;2024-02-04T13:15:39;284.40;;;172.77;;
12601;SDS011;30282;16.436;99.370;2024-02-04T13:18:10;345.23;;;217.60;;
12601;SDS011;30282;16.436;99.370;2024-02-04T13:20:41;398.50;;;273.57;;
12601;SDS011;30282;16.436;99.370;2024-02-04T13:23:11;244.30;;;163.37;;
12601;SDS011;30282;16.436;99.370;2024-02-04T13:25:40;75.37;;;47.07;;
12601;SDS011;30282;16.436;99.370;2024-02-04T13:28:10;78.53;;;47.97;;
12601;SDS011;30282;16.436;99.370;2024-02-04T13:30:39;68.37;;;42.50;;
12601;SDS011;30282;16.436;99.370;2024-02-04T13:33:10;68.10;;;42.30;;
12601;SDS011;30282;16.436;99.370;2024-02-04T13:35:39;54.80;;;38.80;;
12601;SDS011;30282;16.436;99.370;2024-02-04T13:38:09;63.97;;;38.57;;
12601;SDS011;30282;16.436;99.370;2024-02-04T13:40:38;74.57;;;51.10;;
12601;SDS011;30282;16.436;99.370;2024-02-04T13:43:07;228.93;;;152.33;;
12601;SDS011;30282;16.436;99.370;2024-02-04T13:45:37;75.50;;;43.90;;
12601;SDS011;30282;16.436;99.370;2024-02-04T13:48:06;63.40;;;39.13;;
12601;SDS011;30282;16.436;99.370;2024-02-04T13:50:37;57.27;;;37.07;;
12601;SDS011;30282;16.436;99.370;2024-02-04T13:53:06;77.43;;;47.83;;
12601;SDS011;30282;16.436;99.370;2024-02-04T13:55:37;70.27;;;42.03;;
12601;SDS011;30282;16.436;99.370;2024-02-04T13:58:06;59.03;;;38.57;;
12601;SDS011;30282;16.436;99.370;2024-02-04T14:00:35;58.97;;;38.43;;
12601;SDS011;30282;16.436;99.370;2024-02-04T14:03:04;90.70;;;54.33;;
12601;SDS011;30282;16.436;99.370;2024-02-04T14:05:40;67.30;;;40.77;;
12601;SDS011;30282;16.436;99.370;2024-02-04T14:08:10;63.33;;;36.07;;
12601;SDS011;30282;16.436;99.370;2024-02-04T14:10:40;59.53;;;36.33;;
12601;SDS011;30282;16.436;99.370;2024-02-04T14:13:09;62.03;;;39.83;;
12601;SDS011;30282;16.436;99.370;2024-02-04T14:15:39;51.00;;;34.57;;
12601;SDS011;30282;16.436;99.370;2024-02-04T14:18:08;53.03;;;35.07;;
12601;SDS011;30282;16.436;99.370;2024-02-04T14:20:37;67.03;;;38.17;;
12601;SDS011;30282;16.436;99.370;2024-02-04T14:23:08;75.40;;;38.83;;
12601;SDS011;30282;16.436;99.370;2024-02-04T14:25:38;79.93;;;45.90;;
12601;SDS011;30282;16.436;99.370;2024-02-04T14:28:08;62.67;;;37.53;;
12601;SDS011;30282;16.436;99.370;2024-02-04T14:30:38;101.90;;;62.43;;
12601;SDS011;30282;16.436;99.370;2024-02-04T14:33:07;67.10;;;39.03;;
12601;SDS011;30282;16.436;99.370;2024-02-04T14:35:36;59.83;;;39.97;;
12601;SDS011;30282;16.436;99.370;2024-02-04T14:38:07;105.43;;;62.70;;
12601;SDS011;30282;16.436;99.370;2024-02-04T14:40:37;63.43;;;38.37;;